Time;durP1;ratioP1;P1;durP2;ratioP2;P2;SDS_P1;SDS_P2;PMS_P1;PMS_P2;Temp;Humidity;BMP_temperature;BMP_pressure;BME280_temperature;BME280_humidity;BME280_pressure;Samples;Min_cycle;Max_cycle;Signal;HPM_P1;HPM_P2
2022/06/12 00:00:31;;;;;;;1.40;1.20;;;12.80;99.90;;;13.86;100.00;96044.72;651815;216;31539;-76
2022/06/12 00:03:19;;;;;;;2.25;1.30;;;12.70;99.90;;;13.92;100.00;96045.87;650741;216;42122;-76
2022/06/12 00:06:01;;;;;;;1.00;1.00;;;12.80;99.90;;;13.91;100.00;96045.84;652165;212;42437;-76
2022/06/12 00:08:48;;;;;;;1.60;1.10;;;12.80;1.40;;;13.82;100.00;96041.72;644095;213;42706;-77
2022/06/12 00:11:33;;;;;;;0.75;0.70;;;12.60;1.40;;;13.75;100.00;96039.90;650586;216;42345;-76
2022/06/12 00:14:17;;;;;;;1.85;0.88;;;12.50;1.40;;;13.68;100.00;96037.89;621026;226;31986;-77
2022/06/12 00:16:58;;;;;;;3.40;1.10;;;12.50;1.40;;;13.75;100.00;96040.34;617886;222;42527;-76
2022/06/12 00:19:44;;;;;;;1.45;1.00;;;12.60;1.40;;;13.74;100.00;96038.55;646350;216;42481;-76
2022/06/12 00:22:31;;;;;;;1.30;1.20;;;12.60;1.40;;;13.76;100.00;96041.41;646383;212;40437;-76
2022/06/12 00:25:14;;;;;;;0.90;0.70;;;12.70;1.40;;;13.93;100.00;96035.64;648980;216;32435;-76
2022/06/12 00:27:54;;;;;;;1.33;1.02;;;13.00;1.40;;;14.06;100.00;96033.94;647638;216;42399;-77
2022/06/12 00:30:38;;;;;;;1.60;0.70;;;13.20;99.90;;;14.08;100.00;96033.27;649165;212;42106;-76
2022/06/12 00:35:57;;;;;;;1.90;1.33;;;13.00;1.40;;;14.09;100.00;96035.70;646669;212;31548;-77
2022/06/12 00:38:45;;;;;;;1.55;1.15;;;13.20;99.90;;;14.15;100.00;96036.62;647705;216;35249;-76
2022/06/12 00:41:32;;;;;;;1.30;0.77;;;13.10;99.90;;;14.15;100.00;96040.71;645958;212;31495;-77
2022/06/12 00:44:20;;;;;;;1.00;0.90;;;13.10;99.90;;;14.07;100.00;96037.12;654993;216;40373;-76
2022/06/12 00:47:02;;;;;;;1.20;0.95;;;13.00;99.90;;;13.99;100.00;96037.61;647154;212;32040;-76
2022/06/12 00:49:44;;;;;;;1.10;0.90;;;12.90;99.90;;;13.97;100.00;96038.42;644773;216;31646;-77
2022/06/12 00:52:30;;;;;;;1.70;0.73;;;12.80;1.40;;;14.01;100.00;96038.65;642487;216;42373;-76
2022/06/12 00:55:37;;;;;;;0.73;0.70;;;13.00;99.90;;;14.12;100.00;96036.23;625383;226;41764;-76
2022/06/12 00:58:17;;;;;;;1.33;1.02;;;13.20;99.90;;;14.18;100.00;96027.91;647450;216;32059;-77
2022/06/12 01:01:05;;;;;;;0.50;0.50;;;13.20;1.40;;;14.35;100.00;96027.00;652616;216;42737;-77
2022/06/12 01:06:36;;;;;;;1.65;1.12;;;13.70;99.90;;;14.49;100.00;96026.91;648594;216;31516;-76
2022/06/12 01:09:19;;;;;;;2.50;1.20;;;13.50;99.90;;;14.40;100.00;96027.08;644244;216;41960;-77
2022/06/12 01:12:07;;;;;;;0.70;0.70;;;13.30;99.90;;;14.37;100.00;96022.07;654681;216;42149;-77
2022/06/12 01:14:50;;;;;;;1.40;0.70;;;13.30;99.90;;;14.35;100.00;96021.48;647476;216;31517;-78
2022/06/12 01:17:38;;;;;;;1.70;0.90;;;13.20;1.40;;;14.36;100.00;96020.25;650031;216;42697;-76
2022/06/12 01:20:24;;;;;;;0.90;0.80;;;13.30;99.90;;;14.33;100.00;96021.05;648327;212;31502;-76
2022/06/12 01:23:37;;;;;;;1.67;1.00;;;13.30;99.90;;;14.29;100.00;96021.20;650946;216;42145;-76
2022/06/12 01:26:32;;;;;;;1.30;1.20;;;13.20;99.90;;;14.31;100.00;96018.47;645722;215;42270;-76
2022/06/12 01:29:26;;;;;;;0.80;0.70;;;13.30;1.40;;;14.30;100.00;96010.63;648108;216;32524;-77
2022/06/12 01:32:18;;;;;;;1.10;0.82;;;13.30;99.90;;;14.25;100.00;96011.16;648129;212;31474;-76
2022/06/12 01:35:57;;;;;;;1.40;0.80;;;13.20;1.40;;;14.19;100.00;96014.20;618972;223;31907;-77
2022/06/12 01:38:52;;;;;;;1.08;0.90;;;13.00;1.40;;;14.05;100.00;96015.63;649398;216;42105;-76
2022/06/12 01:41:56;;;;;;;1.73;0.80;;;12.90;1.40;;;14.00;100.00;96011.73;645551;216;40768;-77
2022/06/12 01:44:48;;;;;;;1.20;1.10;;;13.00;1.40;;;13.94;100.00;96007.44;647188;212;33716;-76
2022/06/12 01:47:51;;;;;;;1.20;1.10;;;12.80;1.40;;;13.85;100.00;96010.39;647195;216;31551;-76
2022/06/12 01:50:40;;;;;;;0.65;0.60;;;12.70;1.40;;;13.86;100.00;95998.97;649505;216;37738;-76
2022/06/12 01:53:29;;;;;;;1.00;0.80;;;12.80;1.40;;;13.88;100.00;95993.63;638946;216;31678;-76
2022/06/12 02:01:39;;;;;;;1.02;0.90;;;12.70;1.40;;;13.72;100.00;95992.44;646542;216;31762;-76
2022/06/12 02:04:34;;;;;;;1.25;0.80;;;12.70;1.40;;;13.75;100.00;95979.33;648378;216;39313;-77
2022/06/12 02:07:31;;;;;;;2.17;1.08;;;12.80;1.40;;;13.83;100.00;95981.50;646700;212;31477;-76
2022/06/12 02:10:16;;;;;;;0.85;0.85;;;12.90;1.40;;;13.80;100.00;95982.84;648215;216;31966;-77
2022/06/12 02:13:11;;;;;;;0.57;0.57;;;12.80;1.40;;;13.73;100.00;95981.63;648382;216;42156;-77
2022/06/12 02:16:11;;;;;;;0.70;0.70;;;12.60;1.40;;;13.70;100.00;95984.31;648868;213;31476;-76
2022/06/12 02:18:54;;;;;;;1.10;1.00;;;12.50;1.40;;;13.53;100.00;95981.88;651474;216;34259;-76
2022/06/12 02:21:41;;;;;;;1.40;0.85;;;12.40;1.40;;;13.65;100.00;95978.72;650128;212;31787;-77
2022/06/12 02:24:30;;;;;;;0.70;0.70;;;12.70;1.40;;;13.69;100.00;95978.73;647468;216;31494;-76
2022/06/12 02:27:13;;;;;;;0.77;0.50;;;12.80;1.40;;;13.71;100.00;95976.66;620015;226;35003;-76
2022/06/12 02:30:01;;;;;;;0.65;0.60;;;12.80;1.40;;;13.70;100.00;95976.85;648628;216;31467;-77
2022/06/12 02:33:01;;;;;;;0.85;0.82;;;12.80;1.40;;;13.63;100.00;95979.25;649923;212;42762;-77
2022/06/12 02:36:17;;;;;;;1.20;1.02;;;12.60;1.40;;;13.55;100.00;95979.10;620522;226;31910;-76
2022/06/12 02:39:21;;;;;;;0.98;0.90;;;12.50;1.40;;;13.52;100.00;95979.78;648846;212;42174;-76
2022/06/12 02:42:09;;;;;;;1.27;1.10;;;12.50;1.40;;;13.55;100.00;95986.46;645899;216;38778;-77
2022/06/12 02:44:54;;;;;;;1.20;1.00;;;12.60;1.40;;;13.56;100.00;95981.53;650611;216;32902;-76
2022/06/12 02:50:21;;;;;;;1.50;0.80;;;12.40;1.40;;;13.41;100.00;95983.10;645579;216;42123;-76
2022/06/12 02:53:17;;;;;;;1.45;1.08;;;12.20;1.40;;;13.35;100.00;95980.55;645778;212;31501;-77
2022/06/12 02:56:08;;;;;;;1.12;0.70;;;12.10;99.90;;;13.30;100.00;95981.38;620018;222;32517;-76
2022/06/12 02:58:52;;;;;;;1.10;1.00;;;12.20;1.40;;;13.32;100.00;95980.73;646269;216;32119;-76
2022/06/12 03:01:42;;;;;;;0.90;0.70;;;12.30;1.40;;;13.30;100.00;95980.45;616254;227;31883;-77
2022/06/12 03:04:24;;;;;;;0.70;0.70;;;12.40;1.40;;;13.35;100.00;95979.02;645293;215;31566;-76
2022/06/12 03:07:11;;;;;;;0.90;0.75;;;12.40;1.40;;;13.34;100.00;95981.44;647989;212;33202;-76
2022/06/12 03:09:59;;;;;;;1.08;0.60;;;12.50;1.40;;;13.34;100.00;95984.32;641773;218;31569;-77
2022/06/12 03:12:41;;;;;;;0.62;0.62;;;12.50;1.40;;;13.39;100.00;95979.53;648784;216;42108;-76
2022/06/12 03:18:21;;;;;;;0.73;0.73;;;12.50;1.40;;;13.37;100.00;95986.16;646761;216;31464;-76
2022/06/12 03:21:22;;;;;;;0.60;0.60;;;12.50;1.40;;;13.37;100.00;95989.54;650405;216;37959;-76
2022/06/12 03:24:27;;;;;;;0.70;0.70;;;12.40;1.40;;;13.38;100.00;95992.09;651009;212;31662;-76
2022/06/12 03:27:19;;;;;;;2.08;1.10;;;12.50;1.40;;;13.46;100.00;95998.06;645429;216;31552;-77
2022/06/12 03:30:07;;;;;;;1.67;0.90;;;12.60;1.40;;;13.47;100.00;95994.56;648593;212;35610;-76
2022/06/12 03:36:03;;;;;;;1.10;0.70;;;12.60;1.40;;;13.49;100.00;95997.23;647950;212;31610;-76
2022/06/12 03:38:52;;;;;;;1.10;0.70;;;12.60;1.40;;;13.49;100.00;95995.11;646312;212;31688;-77
2022/06/12 03:41:44;;;;;;;1.23;1.12;;;12.50;1.40;;;13.54;100.00;95999.08;632765;217;31924;-76
2022/06/12 03:44:30;;;;;;;1.00;0.90;;;12.70;1.40;;;13.64;100.00;96002.52;621711;222;35586;-76
2022/06/12 03:47:17;;;;;;;1.00;0.90;;;12.80;1.40;;;13.67;100.00;96003.70;620753;226;42545;-76
2022/06/12 03:50:17;;;;;;;0.77;0.77;;;12.70;1.40;;;13.60;100.00;96007.12;644758;216;37360;-76
2022/06/12 03:53:07;;;;;;;1.40;1.10;;;12.60;1.40;;;13.70;100.00;96002.03;639433;216;31729;-76
2022/06/12 03:58:41;;;;;;;0.68;0.68;;;12.90;1.40;;;13.88;100.00;96001.83;623190;226;31871;-77
2022/06/12 04:01:23;;;;;;;0.90;0.80;;;13.10;1.40;;;14.00;100.00;95999.25;622469;226;42622;-77
2022/06/12 04:04:11;;;;;;;1.50;1.00;;;13.20;1.40;;;14.01;100.00;96005.00;647028;216;42378;-76
2022/06/12 04:06:59;;;;;;;0.77;0.77;;;13.10;1.40;;;14.01;100.00;96005.11;621564;226;32758;-77
2022/06/12 04:09:40;;;;;;;0.62;0.62;;;12.90;1.40;;;13.97;100.00;96007.60;620814;222;32001;-76
2022/06/12 04:12:24;;;;;;;0.80;0.80;;;12.80;1.40;;;14.02;100.00;96005.78;644947;212;32080;-76
2022/06/12 04:15:11;;;;;;;1.05;0.95;;;12.90;1.40;;;14.09;100.00;96005.22;621861;226;32765;-76
2022/06/12 04:17:58;;;;;;;1.48;0.50;;;13.10;1.40;;;14.15;100.00;96003.66;646572;216;31524;-76
2022/06/12 04:21:00;;;;;;;0.80;0.60;;;13.20;1.40;;;14.20;100.00;96003.14;649513;216;42107;-76
2022/06/12 04:23:52;;;;;;;1.60;1.30;;;13.30;1.40;;;14.33;100.00;96006.28;647619;213;32631;-76
2022/06/12 04:26:38;;;;;;;1.17;0.87;;;13.40;1.40;;;14.46;100.00;96009.03;651078;216;31528;-77
2022/06/12 04:29:37;;;;;;;0.93;0.90;;;13.50;1.40;;;14.72;100.00;96004.48;648722;212;39385;-76
2022/06/12 04:32:28;;;;;;;0.98;0.93;;;13.90;1.40;;;14.90;100.00;95999.39;647748;216;31523;-77
2022/06/12 04:35:53;;;;;;;0.90;0.90;;;14.10;1.40;;;15.08;100.00;95997.79;645999;212;31763;-76
2022/06/12 04:38:40;;;;;;;2.30;1.10;;;14.20;1.40;;;15.15;100.00;95997.79;644382;216;42684;-76
2022/06/12 04:41:25;;;;;;;0.90;0.73;;;14.20;99.90;;;15.23;100.00;95997.55;643777;217;31947;-76
2022/06/12 04:44:06;;;;;;;2.20;1.12;;;14.30;99.90;;;15.31;100.00;95995.14;648387;216;32046;-76
2022/06/12 04:46:48;;;;;;;1.37;0.98;;;14.40;1.40;;;15.38;100.00;95988.83;646583;212;31625;-76
2022/06/12 04:49:36;;;;;;;1.35;0.70;;;14.50;99.90;;;15.49;100.00;95990.98;647577;216;32119;-77
2022/06/12 04:52:21;;;;;;;1.30;0.60;;;14.60;1.40;;;15.56;100.00;95989.98;643737;216;31671;-77
2022/06/12 04:55:04;;;;;;;1.10;1.00;;;14.60;99.90;;;15.66;100.00;95991.27;648890;212;32314;-76
2022/06/12 04:57:52;;;;;;;1.50;0.73;;;14.70;99.90;;;15.77;100.00;95992.73;645947;216;31608;-77
2022/06/12 05:00:34;;;;;;;0.80;0.70;;;14.90;99.90;;;15.86;100.00;95991.98;647774;212;31477;-77
2022/06/12 05:05:56;;;;;;;0.80;0.80;;;15.00;99.90;;;16.01;100.00;95987.16;646181;216;31553;-76
2022/06/12 05:08:38;;;;;;;1.20;0.68;;;15.10;1.40;;;16.18;100.00;95987.00;650408;216;32063;-76
2022/06/12 05:11:20;;;;;;;1.00;0.80;;;15.30;1.40;;;16.30;100.00;95989.28;647121;216;31888;-76
2022/06/12 05:14:04;;;;;;;1.00;0.90;;;15.40;99.90;;;16.47;100.00;95987.97;646604;216;31667;-77
2022/06/12 05:16:54;;;;;;;0.90;0.80;;;15.60;99.90;;;16.65;100.00;95995.95;646429;216;31535;-76
2022/06/12 05:19:42;;;;;;;1.23;1.10;;;15.80;99.90;;;16.78;100.00;95990.14;620019;226;32190;-77
2022/06/12 05:22:30;;;;;;;1.15;0.88;;;15.90;99.90;;;16.89;100.00;95987.31;647051;216;31554;-76
2022/06/12 05:25:13;;;;;;;1.48;0.90;;;16.00;99.90;;;16.99;100.00;95988.53;648284;216;31775;-76
2022/06/12 05:27:55;;;;;;;2.00;0.80;;;16.10;99.90;;;17.15;100.00;95989.66;650418;212;31647;-77
2022/06/12 05:30:43;;;;;;;1.23;0.80;;;16.30;99.90;;;17.32;100.00;95991.42;649727;216;31518;-77
2022/06/12 05:35:57;;;;;;;1.52;0.90;;;16.60;99.90;;;17.66;100.00;95988.55;647066;216;31599;-77
2022/06/12 05:38:45;;;;;;;1.40;1.02;;;16.80;99.90;;;17.85;100.00;95991.39;618612;226;31816;-77
2022/06/12 05:41:33;;;;;;;1.87;0.93;;;17.00;99.90;;;17.99;100.00;95996.12;649788;216;31546;-77
2022/06/12 05:44:17;;;;;;;2.70;1.37;;;17.10;99.90;;;18.12;100.00;95995.14;649487;216;31620;-76
2022/06/12 05:47:05;;;;;;;2.60;1.00;;;17.20;99.90;;;18.18;100.00;95991.18;651152;212;42171;-77
2022/06/12 05:49:48;;;;;;;1.33;0.75;;;17.30;99.90;;;18.29;100.00;95984.94;647804;212;31607;-76
2022/06/12 05:52:33;;;;;;;0.90;0.70;;;17.40;99.90;;;18.38;100.00;95986.47;648747;212;31530;-76
2022/06/12 05:55:24;;;;;;;2.10;0.70;;;17.50;99.90;;;18.52;100.00;95987.62;643862;216;31451;-77
2022/06/12 05:58:12;;;;;;;0.82;0.82;;;17.60;99.90;;;18.64;100.00;95989.90;645722;216;31774;-77
2022/06/12 06:00:59;;;;;;;1.33;1.05;;;17.80;99.90;;;18.79;100.00;95988.49;621443;226;32076;-77
2022/06/12 06:03:43;;;;;;;0.80;0.80;;;17.90;99.90;;;18.94;100.00;95992.00;647757;212;31568;-76
2022/06/12 06:06:29;;;;;;;1.10;0.80;;;18.10;99.90;;;19.04;100.00;95986.58;647274;212;31692;-76
2022/06/12 06:09:09;;;;;;;1.40;1.15;;;18.20;99.90;;;19.15;100.00;95990.20;644126;213;31519;-77
2022/06/12 06:11:52;;;;;;;1.00;0.90;;;18.30;99.90;;;19.30;100.00;95989.44;646056;216;31638;-78
2022/06/12 06:14:40;;;;;;;1.00;0.73;;;18.40;99.90;;;19.39;100.00;95984.94;646450;216;31804;-77
2022/06/12 06:17:22;;;;;;;0.95;0.85;;;18.50;99.90;;;19.52;100.00;95987.56;648445;212;31508;-76
2022/06/12 06:20:09;;;;;;;1.17;1.02;;;18.60;1.40;;;19.59;100.00;95985.36;619829;223;31914;-75
2022/06/12 06:22:50;;;;;;;1.20;1.10;;;18.70;99.90;;;19.68;100.00;95986.61;651325;216;31515;-75
2022/06/12 06:25:33;;;;;;;1.10;0.87;;;18.80;99.90;;;19.80;100.00;95992.68;650580;212;31524;-76
2022/06/12 06:28:14;;;;;;;1.40;0.90;;;18.90;99.90;;;19.91;100.00;95991.39;623124;226;32021;-75
2022/06/12 06:30:56;;;;;;;1.10;1.00;;;19.00;1.40;;;20.06;100.00;95995.83;617881;222;32003;-76
2022/06/12 06:35:53;;;;;;;1.90;0.90;;;19.30;99.90;;;20.33;100.00;96000.92;646134;216;31539;-75
2022/06/12 06:38:35;;;;;;;1.37;0.80;;;19.40;99.90;;;20.38;100.00;96001.15;648413;216;31471;-75
2022/06/12 06:41:17;;;;;;;1.30;1.05;;;19.50;99.90;;;20.52;100.00;95999.00;617175;223;31813;-75
2022/06/12 06:46:54;;;;;;;1.42;1.00;;;19.70;99.90;;;20.80;100.00;95998.04;646335;212;32046;-75
2022/06/12 06:49:35;;;;;;;1.30;1.20;;;19.90;99.90;;;20.98;100.00;95990.30;626479;226;32072;-74
2022/06/12 06:52:17;;;;;;;1.52;0.90;;;20.10;99.90;;;21.11;100.00;95993.55;640826;216;31810;-75
2022/06/12 06:54:59;;;;;;;0.80;0.70;;;20.20;99.90;;;21.21;100.00;95995.36;616369;226;32009;-75
2022/06/12 06:57:40;;;;;;;1.00;0.90;;;20.30;99.90;;;21.41;100.00;95989.84;650747;212;31534;-75
2022/06/12 07:00:22;;;;;;;1.50;1.00;;;20.50;99.90;;;21.42;100.00;95989.02;616527;226;31852;-75
2022/06/12 07:03:04;;;;;;;0.70;0.62;;;20.50;99.90;;;21.49;100.00;95988.79;648057;212;42109;-75
2022/06/12 07:05:48;;;;;;;0.80;0.70;;;20.50;99.90;;;21.68;100.00;95989.11;650518;212;42153;-75
2022/06/12 07:08:29;;;;;;;1.27;1.10;;;20.70;99.90;;;21.76;100.00;95994.78;646607;216;42698;-75
2022/06/12 07:11:11;;;;;;;0.95;0.85;;;20.70;99.90;;;21.88;100.00;95989.23;644075;216;31587;-75
2022/06/12 07:13:53;;;;;;;1.30;1.03;;;20.90;99.90;;;21.98;100.00;95996.47;648012;212;31462;-76
2022/06/12 07:16:35;;;;;;;1.90;1.00;;;21.00;99.90;;;22.13;100.00;95995.89;647945;212;31597;-75
2022/06/12 07:19:16;;;;;;;2.97;0.70;;;21.10;99.90;;;22.26;100.00;95994.70;646074;212;31555;-75
2022/06/12 07:21:58;;;;;;;0.98;0.80;;;21.20;1.00;;;22.44;100.00;95990.41;648411;212;31493;-75
2022/06/12 07:27:14;;;;;;;1.70;0.90;;;21.30;99.90;;;22.54;100.00;95994.57;646295;212;31976;-76
2022/06/12 07:29:56;;;;;;;1.40;1.30;;;21.50;99.90;;;22.57;100.00;95994.22;649291;212;32046;-76
2022/06/12 07:32:40;;;;;;;1.10;1.00;;;21.50;11.10;;;22.76;100.00;95990.44;623773;226;32012;-76
2022/06/12 07:35:51;;;;;;;1.50;0.80;;;21.70;99.90;;;22.72;100.00;95991.41;646289;216;42149;-75
2022/06/12 07:38:33;;;;;;;0.80;0.80;;;21.60;99.90;;;22.84;99.01;95987.62;646963;212;31579;-76
2022/06/12 07:41:14;;;;;;;0.90;0.70;;;21.80;1.00;;;22.97;98.86;95987.55;644538;212;32471;-75
2022/06/12 07:43:56;;;;;;;0.80;0.80;;;21.90;1.00;;;22.88;97.72;95986.46;646205;212;42293;-76
2022/06/12 07:46:38;;;;;;;0.80;0.80;;;21.80;1.00;;;23.07;95.65;95992.64;619226;226;31968;-77
2022/06/12 07:49:19;;;;;;;0.80;0.80;;;22.10;99.90;;;23.21;91.03;95987.92;649370;216;31625;-76
2022/06/12 07:52:01;;;;;;;2.70;0.82;;;22.20;99.90;;;23.32;87.97;95985.95;643531;212;31839;-76
2022/06/12 07:54:43;;;;;;;0.70;0.70;;;22.20;1.00;;;23.37;83.52;95990.09;646144;216;31523;-75
2022/06/12 07:57:24;;;;;;;0.98;0.77;;;22.40;99.90;;;23.48;83.26;95991.92;649739;212;31536;-75
2022/06/12 08:00:07;;;;;;;1.10;0.90;;;22.50;99.90;;;23.62;82.67;95986.59;648231;212;32157;-76
2022/06/12 08:02:49;;;;;;;1.20;1.10;;;22.60;1.00;;;23.73;81.38;95985.77;647662;216;31626;-75
2022/06/12 08:05:31;;;;;;;1.20;0.80;;;22.70;99.90;;;23.81;80.04;95988.95;647065;216;31548;-75
2022/06/12 08:08:12;;;;;;;2.30;0.98;;;22.70;1.00;;;23.86;79.27;95993.89;648028;212;31500;-75
2022/06/12 08:10:54;;;;;;;1.80;1.08;;;22.80;99.90;;;23.86;71.06;95990.36;620532;222;31831;-76
2022/06/12 08:13:36;;;;;;;1.20;0.88;;;22.90;1.00;;;24.06;71.83;95992.60;647252;212;31468;-76
2022/06/12 08:16:18;;;;;;;1.80;1.70;;;23.00;1.00;;;24.24;69.21;95991.20;650104;212;31476;-76
2022/06/12 08:19:00;;;;;;;1.12;1.00;;;23.20;1.00;;;24.33;66.57;95991.03;645763;212;31481;-76
2022/06/12 08:21:41;;;;;;;1.10;1.00;;;23.20;1.00;;;24.46;67.07;95989.79;649962;212;31491;-76
2022/06/12 08:24:23;;;;;;;1.48;0.90;;;23.20;99.90;;;24.54;60.36;95985.05;649258;216;42157;-76
2022/06/12 08:27:05;;;;;;;1.30;1.17;;;23.40;1.40;;;24.69;62.83;95986.13;647953;212;42351;-75
2022/06/12 08:29:49;;;;;;;1.80;0.95;;;23.60;1.00;;;24.77;60.47;95985.78;646547;212;42144;-76
2022/06/12 08:32:30;;;;;;;1.23;1.12;;;23.70;1.00;;;24.83;59.60;95984.53;645352;216;31504;-76
2022/06/12 08:35:53;;;;;;;2.80;1.00;;;23.80;1.00;;;24.97;60.56;95985.39;646231;213;42104;-75
2022/06/12 08:38:35;;;;;;;1.10;1.00;;;24.00;1.00;;;24.83;56.75;95988.52;648052;212;31476;-75
2022/06/12 08:41:23;;;;;;;3.70;1.30;;;23.70;99.90;;;24.83;59.51;95987.19;647047;212;31543;-75
2022/06/12 08:44:17;;;;;;;2.40;0.80;;;23.60;1.00;;;25.16;62.40;95981.20;644980;216;42131;-76
2022/06/12 08:47:05;;;;;;;1.70;0.90;;;24.00;1.00;;;25.28;61.45;95975.43;644808;216;31825;-76
2022/06/12 08:49:50;;;;;;;1.70;0.80;;;24.00;1.00;;;25.44;63.33;95977.27;654099;216;31754;-75
2022/06/12 08:52:34;;;;;;;2.03;1.23;;;24.40;1.00;;;25.28;59.42;95979.96;643066;212;32262;-75
2022/06/12 08:55:40;;;;;;;1.23;1.12;;;24.20;99.90;;;25.21;57.25;95975.13;648300;212;32026;-76
2022/06/12 08:58:30;;;;;;;1.40;0.90;;;24.20;1.40;;;25.39;57.26;95976.76;618936;222;31854;-75
2022/06/12 09:01:11;;;;;;;3.00;1.10;;;24.40;99.90;;;25.89;56.79;95967.87;621669;226;31894;-76
2022/06/12 09:06:48;;;;;;;0.88;0.80;;;24.50;99.90;;;25.95;56.23;95960.64;649817;212;31503;-76
2022/06/12 09:09:36;;;;;;;1.35;1.10;;;24.60;99.90;;;26.26;55.40;95960.01;650387;212;32126;-76
2022/06/12 09:12:26;;;;;;;1.50;1.02;;;24.90;99.90;;;26.12;52.27;95960.45;646218;212;31552;-77
2022/06/12 09:15:22;;;;;;;0.90;0.80;;;24.80;99.90;;;26.45;51.27;95957.73;619654;222;32303;-77
2022/06/12 09:18:26;;;;;;;1.87;1.00;;;25.10;99.90;;;26.88;53.32;95958.98;648561;212;31559;-77
2022/06/12 09:21:22;;;;;;;1.25;1.10;;;25.30;99.90;;;26.84;50.95;95957.44;649067;216;31520;-77
2022/06/12 09:24:15;;;;;;;0.77;0.68;;;25.50;99.90;;;27.23;52.02;95946.55;649864;212;32340;-77
2022/06/12 09:27:03;;;;;;;0.85;0.80;;;26.00;99.90;;;28.43;46.55;95943.72;648748;216;32049;-75
2022/06/12 09:29:47;;;;;;;2.87;1.30;;;28.90;99.90;;;29.63;44.58;95948.48;649081;212;31547;-76
2022/06/12 09:32:50;;;;;;;0.80;0.80;;;30.20;99.90;;;31.00;41.42;95935.62;645866;216;31487;-77
2022/06/12 09:35:56;;;;;;;1.20;0.90;;;32.20;99.90;;;31.54;42.60;95939.78;650629;216;31681;-76
2022/06/12 09:39:09;;;;;;;1.10;1.00;;;32.50;99.90;;;32.35;39.28;95934.42;647719;216;31723;-76
2022/06/12 09:41:53;;;;;;;1.40;0.77;;;31.20;99.90;;;32.26;37.98;95930.61;647333;216;31524;-76
2022/06/12 09:44:39;;;;;;;0.90;0.70;;;31.00;99.90;;;31.29;38.07;95938.80;646898;212;31652;-76
2022/06/12 09:47:39;;;;;;;2.40;0.70;;;31.00;99.90;;;32.94;37.19;95929.93;617194;222;31930;-76
2022/06/12 09:50:28;;;;;;;0.70;0.60;;;32.40;99.90;;;33.86;36.42;95934.20;644330;216;42711;-76
2022/06/12 09:53:36;;;;;;;0.90;0.80;;;32.30;99.90;;;35.79;40.43;95921.22;649243;212;31500;-76
2022/06/12 09:56:32;;;;;;;1.30;1.00;;;32.50;99.90;;;35.71;37.40;95919.44;648408;214;42174;-76
2022/06/12 09:59:20;;;;;;;1.02;1.00;;;32.90;99.90;;;33.74;37.70;95924.27;645586;216;31543;-76
2022/06/12 10:02:01;;;;;;;0.80;0.80;;;31.70;99.90;;;33.55;38.79;95918.41;649858;216;42235;-76
2022/06/12 10:04:58;;;;;;;1.10;1.00;;;31.10;99.90;;;32.55;36.72;95913.34;646992;216;31596;-76
2022/06/12 10:07:42;;;;;;;1.10;0.70;;;29.80;99.90;;;35.35;38.55;95904.91;653567;212;32072;-76
2022/06/12 10:10:26;;;;;;;2.30;1.10;;;32.50;99.90;;;35.80;31.83;95895.59;647328;212;32516;-76
2022/06/12 10:13:08;;;;;;;0.95;0.60;;;32.30;99.90;;;35.81;28.75;95891.04;625875;225;32512;-76
2022/06/12 10:15:50;;;;;;;1.08;0.60;;;31.60;99.90;;;37.98;30.72;95887.20;647480;216;31655;-77
2022/06/12 10:18:39;;;;;;;0.62;0.60;;;33.40;99.90;;;34.93;28.15;95891.28;644529;212;32457;-76
2022/06/12 10:21:21;;;;;;;0.80;0.70;;;31.40;99.90;;;36.79;32.02;95881.62;619297;226;31844;-77
2022/06/12 10:24:02;;;;;;;0.70;0.70;;;33.00;99.90;;;36.57;30.90;95880.98;645778;212;31502;-76
2022/06/12 10:26:44;;;;;;;0.80;0.80;;;32.70;99.90;;;36.39;28.70;95879.25;650743;216;31565;-76
2022/06/12 10:29:27;;;;;;;1.00;0.90;;;32.00;99.90;;;36.94;29.94;95878.05;645921;212;32082;-76
2022/06/12 10:32:15;;;;;;;0.80;0.60;;;32.70;99.90;;;38.52;29.25;95877.80;641950;216;31671;-76
2022/06/12 10:35:52;;;;;;;0.73;0.70;;;34.00;99.90;;;37.61;29.29;95878.55;630459;221;31660;-77
2022/06/12 10:38:34;;;;;;;1.23;1.00;;;32.90;99.90;;;34.70;30.51;95888.86;623975;226;31936;-76
2022/06/12 10:41:24;;;;;;;1.08;0.62;;;31.00;99.90;;;34.18;31.28;95882.86;620404;226;31975;-76
2022/06/12 10:44:06;;;;;;;1.10;0.90;;;30.70;99.90;;;35.42;33.13;95873.46;652608;216;31495;-76
2022/06/12 10:46:48;;;;;;;0.98;0.88;;;31.30;99.90;;;36.96;28.44;95868.53;647408;216;31609;-76
2022/06/12 10:49:31;;;;;;;1.40;1.30;;;32.90;99.90;;;37.06;27.80;95866.02;647848;216;31518;-76
2022/06/12 10:52:17;;;;;;;0.80;0.80;;;32.70;99.90;;;38.84;27.11;95861.81;649632;212;31491;-76
2022/06/12 10:55:01;;;;;;;0.90;0.90;;;33.20;99.90;;;39.38;28.17;95855.17;617267;226;32054;-76
2022/06/12 10:57:45;;;;;;;1.50;0.70;;;33.00;99.90;;;35.24;27.50;95856.78;648882;216;31575;-76
2022/06/12 11:00:26;;;;;;;0.60;0.60;;;30.10;99.90;;;36.31;27.90;95852.72;647840;216;31511;-76
2022/06/12 11:03:12;;;;;;;1.20;0.90;;;30.80;99.90;;;36.21;28.57;95849.11;648975;216;31655;-76
2022/06/12 11:06:03;;;;;;;0.75;0.75;;;31.00;99.90;;;37.55;27.30;95845.68;645576;212;31521;-76
2022/06/12 11:09:06;;;;;;;0.85;0.70;;;32.60;99.90;;;38.10;26.75;95843.29;651292;212;31454;-76
2022/06/12 11:11:54;;;;;;;0.50;0.50;;;32.80;99.90;;;39.06;26.45;95840.59;648792;212;31482;-76
2022/06/12 11:14:44;;;;;;;0.90;0.80;;;32.90;99.90;;;38.66;26.54;95833.19;643576;212;31560;-76
2022/06/12 11:17:48;;;;;;;0.55;0.50;;;32.90;99.90;;;35.31;27.09;95838.56;648624;212;31572;-76
2022/06/12 11:21:19;;;;;;;0.70;0.50;;;31.40;99.90;;;34.93;27.63;95834.59;648790;212;31464;-76
2022/06/12 11:24:06;;;;;;;0.73;0.62;;;30.90;99.90;;;36.27;26.19;95828.04;620719;222;32097;-76
2022/06/12 11:26:53;;;;;;;0.75;0.50;;;31.00;99.90;;;39.70;25.50;95816.03;649704;212;31499;-77
2022/06/12 11:30:04;;;;;;;0.68;0.62;;;32.20;99.90;;;37.36;25.62;95819.30;647110;212;31510;-77
2022/06/12 11:32:57;;;;;;;0.60;0.60;;;31.10;99.90;;;38.31;25.26;95816.50;647772;212;31496;-76
2022/06/12 11:35:51;;;;;;;1.40;0.50;;;32.00;99.90;;;38.17;24.57;95811.02;645288;212;31546;-76
2022/06/12 11:38:57;;;;;;;0.55;0.50;;;31.80;99.90;;;38.46;26.85;95808.70;649003;216;32306;-77
2022/06/12 11:44:31;;;;;;;1.35;0.80;;;32.00;99.90;;;38.07;24.77;95807.45;648576;212;31602;-76
2022/06/12 11:47:42;;;;;;;0.82;0.80;;;31.30;99.90;;;37.73;25.93;95807.19;646850;216;31899;-77
2022/06/12 11:55:39;;;;;;;0.60;0.60;;;32.10;99.90;;;39.38;24.95;95788.26;648393;216;31525;-77
2022/06/12 11:58:40;;;;;;;0.73;0.60;;;33.00;99.90;;;41.26;24.56;95780.95;646111;212;31538;-77
2022/06/12 12:01:30;;;;;;;0.80;0.50;;;33.30;99.90;;;38.33;25.43;95790.81;647569;216;42245;-76
2022/06/12 12:04:25;;;;;;;1.03;0.70;;;30.50;99.90;;;35.00;27.62;95795.68;649437;216;31481;-77
2022/06/12 12:09:58;;;;;;;0.70;0.68;;;31.80;99.90;;;38.95;27.77;95777.62;648125;216;31541;-77
2022/06/12 12:12:40;;;;;;;1.30;0.90;;;32.40;99.90;;;40.56;26.25;95774.27;647718;212;31649;-76
2022/06/12 12:15:26;;;;;;;1.00;0.80;;;33.20;99.90;;;39.31;25.24;95773.14;648183;216;42167;-77
2022/06/12 12:18:07;;;;;;;1.75;1.55;;;32.60;99.90;;;37.07;26.19;95778.25;648966;216;31648;-76
2022/06/12 12:20:50;;;;;;;1.50;1.40;;;31.00;99.90;;;38.70;26.38;95770.52;620148;226;31830;-77
2022/06/12 12:23:34;;;;;;;0.60;0.60;;;31.70;99.90;;;41.08;24.36;95761.08;618206;226;31944;-76
2022/06/12 12:28:51;;;;;;;1.00;0.90;;;32.50;99.90;;;38.21;26.09;95763.12;646792;216;31652;-78
2022/06/12 12:31:36;;;;;;;0.70;0.70;;;31.60;99.90;;;35.39;25.88;95760.97;646220;216;32145;-77
2022/06/12 12:41:26;;;;;;;0.80;0.52;;;30.90;99.90;;;36.68;25.55;95754.46;622100;222;31913;-76
2022/06/12 12:44:08;;;;;;;0.60;0.60;;;30.70;99.90;;;41.26;23.15;95743.83;646790;216;42103;-77